createdAt,value
2019-02-14T00:02:14.523Z,100879.59
2019-02-14T00:04:42.908Z,100877.84
2019-02-14T00:07:11.282Z,100869.09
2019-02-14T00:09:39.669Z,100868.28
2019-02-14T00:12:08.052Z,100870.09
2019-02-14T00:14:36.437Z,100872.30
2019-02-14T00:17:04.820Z,100872.30
2019-02-14T00:19:33.199Z,100872.30
2019-02-14T00:22:01.580Z,100867.85
2019-02-14T00:24:29.955Z,100860.86
2019-02-14T00:26:58.340Z,100864.43
2019-02-14T00:29:26.734Z,100865.73
2019-02-14T00:31:55.107Z,100865.73
2019-02-14T00:34:23.486Z,100865.35
2019-02-14T00:36:53.347Z,100867.59
2019-02-14T00:39:22.183Z,100869.31
2019-02-14T00:41:50.550Z,100873.27
2019-02-14T00:44:18.926Z,100872.39
2019-02-14T00:46:47.295Z,100879.92
2019-02-14T00:49:15.667Z,100872.94
2019-02-14T00:51:44.055Z,100879.53
2019-02-14T00:54:13.255Z,100878.23
2019-02-14T00:56:41.627Z,100869.00
2019-02-14T00:59:10.959Z,100872.57
2019-02-14T01:01:39.350Z,100873.02
2019-02-14T01:04:07.721Z,100867.34
2019-02-14T01:06:36.109Z,100867.41
2019-02-14T01:09:05.620Z,100873.58
2019-02-14T01:11:33.994Z,100871.81
2019-02-14T01:14:02.403Z,100873.12
2019-02-14T01:16:31.145Z,100869.62
2019-02-14T01:18:59.527Z,100872.73
2019-02-14T01:21:27.922Z,100871.87
2019-02-14T01:23:56.308Z,100867.52
2019-02-14T01:26:24.693Z,100869.28
2019-02-14T01:28:53.078Z,100871.92
2019-02-14T01:31:21.453Z,100875.45
2019-02-14T01:33:49.819Z,100872.38
2019-02-14T01:36:18.206Z,100875.52
2019-02-14T01:38:46.591Z,100870.72
2019-02-14T01:41:14.983Z,100871.56
2019-02-14T01:43:43.356Z,100867.20
2019-02-14T01:46:11.755Z,100862.86
2019-02-14T01:48:40.208Z,100856.28
2019-02-14T01:51:08.592Z,100863.81
2019-02-14T01:53:36.981Z,100869.03
2019-02-14T01:56:05.364Z,100866.89
2019-02-14T01:58:33.735Z,100869.14
2019-02-14T02:01:02.115Z,100868.22
2019-02-14T02:03:30.483Z,100871.39
2019-02-14T02:05:58.924Z,100870.07
2019-02-14T02:08:27.299Z,100867.44
2019-02-14T02:10:55.953Z,100862.18
2019-02-14T02:13:24.325Z,100856.12
2019-02-14T02:15:53.058Z,100856.57
2019-02-14T02:18:21.800Z,100863.66
2019-02-14T02:20:50.261Z,100856.20
2019-02-14T02:23:18.624Z,100859.71
2019-02-14T02:25:47.004Z,100855.81
2019-02-14T02:28:15.374Z,100858.89
2019-02-14T02:30:43.753Z,100850.59
2019-02-14T02:33:12.125Z,100848.01
2019-02-14T02:35:40.512Z,100848.91
2019-02-14T02:38:08.889Z,100853.34
2019-02-14T02:40:37.270Z,100855.55
2019-02-14T02:43:05.961Z,100850.75
2019-02-14T02:45:34.343Z,100854.71
2019-02-14T02:48:02.711Z,100848.12
2019-02-14T02:50:31.087Z,100839.78
2019-02-14T02:52:59.462Z,100839.39
2019-02-14T02:55:27.847Z,100835.48
2019-02-14T02:57:56.226Z,100839.44
2019-02-14T03:00:24.611Z,100845.62
2019-02-14T03:02:53.388Z,100845.17
2019-02-14T03:05:21.753Z,100850.89
2019-02-14T03:07:50.134Z,100846.55
2019-02-14T03:10:18.499Z,100854.51
2019-02-14T03:12:46.891Z,100842.22
2019-02-14T03:15:15.791Z,100847.09
2019-02-14T03:17:44.172Z,100847.97
2019-02-14T03:20:13.182Z,100851.45
2019-02-14T03:22:41.583Z,100849.73
2019-02-14T03:25:20.078Z,100854.14
2019-02-14T03:27:48.464Z,100852.43
2019-02-14T03:30:17.199Z,100852.48
2019-02-14T03:32:45.575Z,100841.51
2019-02-14T03:35:13.949Z,100846.78
2019-02-14T03:37:42.326Z,100849.91
2019-02-14T03:40:12.442Z,100855.17
2019-02-14T03:42:40.826Z,100849.92
2019-02-14T03:45:17.588Z,100844.70
2019-02-14T03:47:45.971Z,100842.99
2019-02-14T03:50:14.622Z,100841.28
2019-02-14T03:52:43.239Z,100849.14
2019-02-14T03:55:11.983Z,100847.82
2019-02-14T03:57:40.422Z,100843.44
2019-02-14T04:00:11.955Z,100850.51
2019-02-14T04:02:40.339Z,100846.58
2019-02-14T04:05:09.153Z,100848.77
2019-02-14T04:07:37.575Z,100849.32
2019-02-14T04:10:14.013Z,100854.54
2019-02-14T04:12:42.384Z,100855.02
2019-02-14T04:15:17.936Z,100859.88
2019-02-14T04:17:46.318Z,100860.74
2019-02-14T04:20:14.759Z,100854.70
2019-02-14T04:22:43.139Z,100862.11
2019-02-14T04:25:11.584Z,100864.33
2019-02-14T04:27:39.977Z,100871.39
2019-02-14T04:30:11.284Z,100876.24
2019-02-14T04:32:39.667Z,100871.89
2019-02-14T04:35:08.047Z,100882.44
2019-02-14T04:37:36.434Z,100881.13
2019-02-14T04:40:12.578Z,100886.39
2019-02-14T04:42:40.956Z,100885.52
2019-02-14T04:45:11.159Z,100881.67
2019-02-14T04:47:39.537Z,100885.19
2019-02-14T04:50:11.766Z,100889.19
2019-02-14T04:52:40.153Z,100892.27
2019-02-14T04:55:10.163Z,100890.95
2019-02-14T04:57:38.545Z,100886.55
2019-02-14T05:00:10.267Z,100889.69
2019-02-14T05:02:38.710Z,100880.91
2019-02-14T05:05:08.217Z,100887.60
2019-02-14T05:07:36.619Z,100890.23
2019-02-14T05:10:07.532Z,100889.42
2019-02-14T05:12:35.911Z,100895.91
2019-02-14T05:15:06.694Z,100888.97
2019-02-14T05:17:35.149Z,100884.54
2019-02-14T05:20:04.260Z,100885.02
2019-02-14T05:22:32.652Z,100883.70
2019-02-14T05:25:01.019Z,100884.20
2019-02-14T05:27:29.406Z,100880.69
2019-02-14T05:29:57.777Z,100881.62
2019-02-14T05:32:26.163Z,100881.72
2019-02-14T05:34:54.574Z,100879.53
2019-02-14T05:37:22.950Z,100870.05
2019-02-14T05:39:51.322Z,100873.95
2019-02-14T05:42:19.703Z,100880.05
2019-02-14T05:44:48.074Z,100881.73
2019-02-14T05:47:16.475Z,100886.12
2019-02-14T05:49:44.827Z,100887.44
2019-02-14T05:52:13.197Z,100886.12
2019-02-14T05:54:41.580Z,100881.73
2019-02-14T05:57:09.963Z,100887.02
2019-02-14T05:59:38.335Z,100893.16
2019-02-14T06:02:06.710Z,100891.44
2019-02-14T06:04:35.089Z,100890.13
2019-02-14T06:07:03.480Z,100896.72
2019-02-14T06:09:31.857Z,100898.55
2019-02-14T06:12:00.227Z,100901.13
2019-02-14T06:14:28.608Z,100900.73
2019-02-14T06:16:56.982Z,100905.13
2019-02-14T06:19:25.365Z,100907.33
2019-02-14T06:21:53.739Z,100906.90
2019-02-14T06:24:22.113Z,100914.73
2019-02-14T06:26:50.487Z,100919.18
2019-02-14T06:29:18.871Z,100913.48
2019-02-14T06:31:47.235Z,100921.00
2019-02-14T06:34:15.619Z,100924.52
2019-02-14T06:36:43.987Z,100936.81
2019-02-14T06:39:12.398Z,100941.20
2019-02-14T06:41:40.780Z,100943.02
2019-02-14T06:44:09.171Z,100941.70
2019-02-14T06:46:37.547Z,100939.06
2019-02-14T06:49:05.963Z,100938.67
2019-02-14T06:51:34.309Z,100936.88
2019-02-14T06:54:02.692Z,100932.58
2019-02-14T06:56:31.063Z,100936.09
2019-02-14T06:58:59.447Z,100942.25
2019-02-14T07:01:27.818Z,100937.84
2019-02-14T07:03:56.207Z,100935.66
2019-02-14T07:06:25.229Z,100944.88
2019-02-14T07:08:53.619Z,100946.25
2019-02-14T07:11:21.988Z,100950.20
2019-02-14T07:13:50.411Z,100958.11
2019-02-14T07:16:18.779Z,100953.28
2019-02-14T07:18:47.160Z,100948.54
2019-02-14T07:21:15.527Z,100951.13
2019-02-14T07:23:43.903Z,100949.31
2019-02-14T07:26:12.283Z,100946.97
2019-02-14T07:28:40.666Z,100952.57
2019-02-14T07:31:09.041Z,100952.01
2019-02-14T07:33:37.433Z,100954.05
2019-02-14T07:36:05.807Z,100957.36
2019-02-14T07:38:35.107Z,100957.16
2019-02-14T07:41:03.559Z,100953.97
2019-02-14T07:43:31.997Z,100963.08
2019-02-14T07:46:00.437Z,100967.32
2019-02-14T07:48:28.820Z,100968.09
2019-02-14T07:50:57.209Z,100969.36
2019-02-14T07:53:25.584Z,100971.00
2019-02-14T07:55:53.964Z,100969.95
2019-02-14T07:58:22.328Z,100972.48
2019-02-14T08:00:50.726Z,100976.16
2019-02-14T08:03:19.101Z,100966.81
2019-02-14T08:05:47.474Z,100975.38
2019-02-14T08:08:15.850Z,100978.73
2019-02-14T08:10:44.239Z,100973.77
2019-02-14T08:13:12.606Z,100969.65
2019-02-14T08:15:40.994Z,100963.80
2019-02-14T08:18:09.366Z,100968.85
2019-02-14T08:20:37.751Z,100971.30
2019-02-14T08:23:06.139Z,100972.45
2019-02-14T08:25:34.518Z,100973.10
2019-02-14T08:28:02.886Z,100976.81
2019-02-14T08:30:31.280Z,100973.94
2019-02-14T08:32:59.657Z,100974.58
2019-02-14T08:35:28.045Z,100973.13
2019-02-14T08:37:56.414Z,100971.63
2019-02-14T08:40:27.073Z,100976.70
2019-02-14T08:42:55.981Z,100973.89
2019-02-14T08:45:24.358Z,100971.07
2019-02-14T08:47:52.735Z,100969.13
2019-02-14T08:50:21.119Z,100968.98
2019-02-14T08:52:49.494Z,100972.28
2019-02-14T08:55:18.016Z,100963.72
2019-02-14T08:57:46.409Z,100966.12
2019-02-14T09:00:16.233Z,100966.87
2019-02-14T09:02:44.605Z,100969.39
2019-02-14T09:05:13.579Z,100971.34
2019-02-14T09:07:41.953Z,100975.09
2019-02-14T09:10:18.084Z,100954.62
2019-02-14T09:12:46.452Z,100954.36
2019-02-14T09:15:15.282Z,100957.30
2019-02-14T09:17:43.648Z,100956.27
2019-02-14T09:20:19.664Z,100956.14
2019-02-14T09:22:48.029Z,100962.50
2019-02-14T09:25:16.413Z,100961.92
2019-02-14T09:27:44.836Z,100970.95
2019-02-14T09:30:16.858Z,100966.80
2019-02-14T09:32:45.228Z,100967.95
2019-02-14T09:35:13.612Z,100967.30
2019-02-14T09:37:41.989Z,100970.23
2019-02-14T09:40:14.957Z,100973.95
2019-02-14T09:42:43.326Z,100972.45
2019-02-14T09:45:13.359Z,100978.88
2019-02-14T09:47:41.745Z,100972.05
2019-02-14T09:50:14.183Z,100974.53
2019-02-14T09:52:42.738Z,100970.81
2019-02-14T09:55:12.922Z,100963.60
2019-02-14T09:57:41.319Z,100954.62
2019-02-14T10:00:20.113Z,100966.40
2019-02-14T10:02:48.480Z,100965.35
2019-02-14T10:05:17.027Z,100963.44
2019-02-14T10:07:45.427Z,100964.55
2019-02-14T10:10:18.999Z,100963.52
2019-02-14T10:12:47.374Z,100958.91
2019-02-14T10:15:15.832Z,100964.48
2019-02-14T10:17:44.197Z,100966.99
2019-02-14T10:20:14.528Z,100966.05
2019-02-14T10:22:42.893Z,100971.59
2019-02-14T10:25:12.215Z,100969.81
2019-02-14T10:27:40.620Z,100971.41
2019-02-14T10:30:14.887Z,100969.88
2019-02-14T10:32:43.301Z,100971.12
2019-02-14T10:35:11.642Z,100970.98
2019-02-14T10:37:40.014Z,100972.27
2019-02-14T10:40:11.140Z,100972.73
2019-02-14T10:42:39.506Z,100967.42
2019-02-14T10:45:18.665Z,100969.20
2019-02-14T10:47:46.970Z,100969.73
2019-02-14T10:50:15.349Z,100964.05
2019-02-14T10:52:43.759Z,100959.63
2019-02-14T10:55:13.911Z,100953.06
2019-02-14T10:57:42.293Z,100951.78
2019-02-14T11:00:17.597Z,100950.67
2019-02-14T11:02:46.209Z,100951.53
2019-02-14T11:05:15.524Z,100945.64
2019-02-14T11:07:43.974Z,100944.48
2019-02-14T11:10:13.899Z,100943.36
2019-02-14T11:12:42.440Z,100937.73
2019-02-14T11:15:13.055Z,100939.17
2019-02-14T11:17:41.513Z,100940.73
2019-02-14T11:20:14.502Z,100942.33
2019-02-14T11:22:42.873Z,100934.61
2019-02-14T11:25:30.944Z,100936.20
2019-02-14T11:27:59.314Z,100928.02
2019-02-14T11:30:27.690Z,100929.95
2019-02-14T11:32:56.180Z,100921.77
2019-02-14T11:35:24.581Z,100923.77
2019-02-14T11:37:52.950Z,100930.58
2019-02-14T11:40:21.324Z,100928.16
2019-02-14T11:42:49.710Z,100928.80
2019-02-14T11:45:23.868Z,100928.11
2019-02-14T11:47:52.248Z,100929.23
2019-02-14T11:50:20.633Z,100925.02
2019-02-14T11:52:49.029Z,100929.19
2019-02-14T11:55:17.407Z,100933.38
2019-02-14T11:57:45.797Z,100931.45
2019-02-14T12:00:23.879Z,100919.83
2019-02-14T12:02:55.929Z,100917.48
2019-02-14T12:05:23.441Z,100918.73
2019-02-14T12:07:51.814Z,100920.13
2019-02-14T12:10:20.182Z,100914.83
2019-02-14T12:12:48.563Z,100919.30
2019-02-14T12:15:16.930Z,100914.83
2019-02-14T12:17:45.320Z,100906.48
2019-02-14T12:20:15.430Z,100902.80
2019-02-14T12:22:46.788Z,100898.77
2019-02-14T12:25:19.595Z,100898.07
2019-02-14T12:27:47.976Z,100901.02
2019-02-14T12:30:16.514Z,100896.17
2019-02-14T12:32:44.894Z,100897.13
2019-02-14T12:35:13.266Z,100897.99
2019-02-14T12:37:41.656Z,100895.72
2019-02-14T12:40:12.132Z,100890.41
2019-02-14T12:42:40.519Z,100887.20
2019-02-14T12:45:20.517Z,100887.13
2019-02-14T12:47:47.628Z,100889.24
2019-02-14T12:50:16.044Z,100886.97
2019-02-14T12:52:44.438Z,100883.85
2019-02-14T12:55:12.871Z,100877.13
2019-02-14T12:57:41.253Z,100873.15
2019-02-14T13:00:18.228Z,100875.34
2019-02-14T13:02:46.678Z,100871.83
2019-02-14T13:05:15.055Z,100862.16
2019-02-14T13:07:43.433Z,100857.30
2019-02-14T13:10:14.054Z,100852.45
2019-02-14T13:12:42.434Z,100849.33
2019-02-14T13:15:26.030Z,100849.80
2019-02-14T13:17:54.416Z,100843.70
2019-02-14T13:20:22.859Z,100843.70
2019-02-14T13:22:51.243Z,100840.66
2019-02-14T13:25:19.614Z,100838.01
2019-02-14T13:27:47.993Z,100836.69
2019-02-14T13:30:24.949Z,100840.13
2019-02-14T13:32:53.388Z,100835.73
2019-02-14T13:35:21.787Z,100831.75
2019-02-14T13:37:50.158Z,100827.47
2019-02-14T13:40:18.530Z,100815.61
2019-02-14T13:42:46.910Z,100825.44
2019-02-14T13:45:23.335Z,100822.45
2019-02-14T13:47:51.785Z,100825.11
2019-02-14T13:50:20.324Z,100819.88
2019-02-14T13:52:48.704Z,100824.36
2019-02-14T13:55:17.073Z,100821.00
2019-02-14T13:57:45.463Z,100816.31
2019-02-14T14:00:28.142Z,100820.50
2019-02-14T14:02:56.529Z,100816.84
2019-02-14T14:05:24.901Z,100813.95
2019-02-14T14:07:53.290Z,100815.84
2019-02-14T14:10:21.671Z,100820.90
2019-02-14T14:12:50.113Z,100814.02
2019-02-14T14:15:18.485Z,100815.75
2019-02-14T14:17:46.876Z,100810.11
2019-02-14T14:20:15.247Z,100812.31
2019-02-14T14:22:43.630Z,100806.14
2019-02-14T14:25:12.268Z,100808.48
2019-02-14T14:27:40.647Z,100805.92
2019-02-14T14:30:13.915Z,100807.38
2019-02-14T14:32:42.294Z,100810.10
2019-02-14T14:35:11.529Z,100814.23
2019-02-14T14:37:39.953Z,100809.02
2019-02-14T14:40:13.436Z,100805.12
2019-02-14T14:42:52.284Z,100801.30
2019-02-14T14:45:40.734Z,100797.41
2019-02-14T14:48:19.259Z,100799.30
2019-02-14T14:50:40.851Z,100798.59
2019-02-14T14:53:09.232Z,100801.32
2019-02-14T14:55:37.598Z,100801.37
2019-02-14T14:58:05.987Z,100801.52
2019-02-14T15:00:34.725Z,100799.89
2019-02-14T15:03:03.119Z,100800.02
2019-02-14T15:05:31.747Z,100801.84
2019-02-14T15:08:00.457Z,100800.66
2019-02-14T15:10:28.984Z,100794.08
2019-02-14T15:12:57.372Z,100792.91
2019-02-14T15:15:25.780Z,100787.38
2019-02-14T15:17:54.166Z,100779.97
2019-02-14T15:20:22.534Z,100780.50
2019-02-14T15:22:50.916Z,100778.00
2019-02-14T15:25:19.288Z,100772.86
2019-02-14T15:27:47.660Z,100780.80
2019-02-14T15:30:16.051Z,100781.34
2019-02-14T15:32:44.419Z,100777.89
2019-02-14T15:35:12.924Z,100776.65
2019-02-14T15:37:42.010Z,100766.25
2019-02-14T15:40:11.350Z,100766.25
2019-02-14T15:42:39.727Z,100773.44
2019-02-14T15:45:08.759Z,100770.45
2019-02-14T15:47:37.127Z,100772.30
2019-02-14T15:50:08.866Z,100762.73
2019-02-14T15:52:37.500Z,100766.29
2019-02-14T15:55:07.325Z,100765.53
2019-02-14T15:57:35.688Z,100761.59
2019-02-14T16:00:09.641Z,100763.00
2019-02-14T16:02:36.191Z,100763.15
2019-02-14T16:05:05.824Z,100768.06
2019-02-14T16:07:34.211Z,100772.95
2019-02-14T16:10:03.757Z,100768.22
2019-02-14T16:12:32.740Z,100774.43
2019-02-14T16:15:01.133Z,100764.33
2019-02-14T16:17:29.574Z,100760.92
2019-02-14T16:19:59.671Z,100760.13
2019-02-14T16:22:29.987Z,100757.06
2019-02-14T16:24:58.272Z,100756.69
2019-02-14T16:27:26.939Z,100755.02
2019-02-14T16:29:55.407Z,100766.17
2019-02-14T16:32:23.781Z,100760.23
2019-02-14T16:34:52.186Z,100760.50
2019-02-14T16:37:20.554Z,100757.86
2019-02-14T16:39:51.771Z,100767.80
2019-02-14T16:42:19.049Z,100767.09
2019-02-14T16:44:47.425Z,100768.10
2019-02-14T16:47:15.832Z,100768.22
2019-02-14T16:49:44.226Z,100765.72
2019-02-14T16:52:12.585Z,100769.77
2019-02-14T16:54:40.968Z,100762.34
2019-02-14T16:57:09.343Z,100763.36
2019-02-14T16:59:37.723Z,100773.09
2019-02-14T17:02:06.091Z,100769.64
2019-02-14T17:04:34.524Z,100772.36
2019-02-14T17:07:02.925Z,100769.79
2019-02-14T17:09:31.306Z,100765.96
2019-02-14T17:11:59.955Z,100770.53
2019-02-14T17:14:28.594Z,100776.81
2019-02-14T17:16:56.967Z,100774.65
2019-02-14T17:19:25.346Z,100776.50
2019-02-14T17:21:53.719Z,100780.54
2019-02-14T17:24:22.105Z,100773.92
2019-02-14T17:26:51.011Z,100776.16
2019-02-14T17:29:19.387Z,100781.06
2019-02-14T17:31:47.764Z,100778.95
2019-02-14T17:34:16.134Z,100784.31
2019-02-14T17:36:44.524Z,100783.86
2019-02-14T17:39:12.895Z,100785.64
2019-02-14T17:41:41.279Z,100786.16
2019-02-14T17:44:09.651Z,100786.23
2019-02-14T17:46:38.039Z,100787.62
2019-02-14T17:49:06.489Z,100787.70
2019-02-14T17:51:35.079Z,100781.98
2019-02-14T17:54:03.455Z,100784.25
2019-02-14T17:56:31.857Z,100791.81
2019-02-14T17:59:00.610Z,100789.69
2019-02-14T18:01:28.990Z,100781.81
2019-02-14T18:03:57.385Z,100784.05
2019-02-14T18:06:25.766Z,100793.37
2019-02-14T18:08:54.140Z,100793.87
2019-02-14T18:11:22.523Z,100789.09
2019-02-14T18:13:50.894Z,100787.77
2019-02-14T18:16:19.272Z,100779.91
2019-02-14T18:18:47.642Z,100781.27
2019-02-14T18:21:16.022Z,100774.72
2019-02-14T18:23:44.534Z,100782.27
2019-02-14T18:26:14.749Z,100781.86
2019-02-14T18:28:43.145Z,100772.19
2019-02-14T18:31:11.579Z,100777.09
2019-02-14T18:33:39.945Z,100781.20
2019-02-14T18:36:08.332Z,100782.63
2019-02-14T18:38:36.807Z,100780.47
2019-02-14T18:41:05.196Z,100778.41
2019-02-14T18:43:33.577Z,100787.67
2019-02-14T18:46:01.959Z,100786.73
2019-02-14T18:48:30.804Z,100778.48
2019-02-14T18:50:59.190Z,100782.10
2019-02-14T18:53:27.564Z,100790.48
2019-02-14T18:55:55.939Z,100793.94
2019-02-14T18:58:26.710Z,100795.71
2019-02-14T19:00:54.668Z,100789.59
2019-02-14T19:03:23.039Z,100789.97
2019-02-14T19:05:51.429Z,100785.62
2019-02-14T19:08:19.797Z,100791.36
2019-02-14T19:10:48.180Z,100789.09
2019-02-14T19:13:18.717Z,100786.07
2019-02-14T19:15:46.659Z,100791.36
2019-02-14T19:18:15.033Z,100793.13
2019-02-14T19:20:43.438Z,100790.17
2019-02-14T19:23:23.068Z,100791.56
2019-02-14T19:25:41.904Z,100789.83
2019-02-14T19:28:10.283Z,100791.70
2019-02-14T19:30:38.667Z,100785.09
2019-02-14T19:33:07.039Z,100788.19
2019-02-14T19:35:35.424Z,100786.52
2019-02-14T19:38:03.809Z,100782.16
2019-02-14T19:40:32.165Z,100775.55
2019-02-14T19:43:01.179Z,100772.48
2019-02-14T19:45:36.293Z,100768.59
2019-02-14T19:47:59.656Z,100776.14
2019-02-14T19:50:28.029Z,100770.47
2019-02-14T19:52:56.433Z,100775.02
2019-02-14T19:55:24.784Z,100771.58
2019-02-14T19:57:54.491Z,100773.77
2019-02-14T20:00:23.171Z,100768.93
2019-02-14T20:02:51.557Z,100765.03
2019-02-14T20:05:19.947Z,100766.42
2019-02-14T20:07:48.325Z,100757.20
2019-02-14T20:10:16.715Z,100762.11
2019-02-14T20:12:45.098Z,100760.40
2019-02-14T20:15:18.550Z,100759.59
2019-02-14T20:17:46.913Z,100768.92
2019-02-14T20:20:15.518Z,100763.22
2019-02-14T20:22:43.932Z,100762.44
2019-02-14T20:25:18.189Z,100765.47
2019-02-14T20:27:46.565Z,100761.58
2019-02-14T20:30:14.952Z,100763.03
2019-02-14T20:32:43.327Z,100760.84
2019-02-14T20:35:11.703Z,100758.71
2019-02-14T20:37:40.084Z,100761.36
2019-02-14T20:40:10.303Z,100764.52
2019-02-14T20:42:38.760Z,100762.39
2019-02-14T20:45:10.081Z,100767.64
2019-02-14T20:47:38.467Z,100758.91
2019-02-14T20:50:09.889Z,100762.94
2019-02-14T20:52:38.283Z,100759.50
2019-02-14T20:55:09.790Z,100761.34
2019-02-14T20:57:38.174Z,100747.83
2019-02-14T21:00:11.358Z,100752.09
2019-02-14T21:02:39.720Z,100749.95
2019-02-14T21:05:08.094Z,100750.90
2019-02-14T21:07:36.483Z,100749.70
2019-02-14T21:10:06.696Z,100750.61
2019-02-14T21:12:35.078Z,100746.64
2019-02-14T21:15:03.573Z,100743.62
2019-02-14T21:17:31.930Z,100742.30
2019-02-14T21:20:00.318Z,100748.09
2019-02-14T21:22:28.783Z,100750.81
2019-02-14T21:24:57.166Z,100755.64
2019-02-14T21:27:25.557Z,100746.07
2019-02-14T21:29:53.927Z,100746.14
2019-02-14T21:32:22.312Z,100745.40
2019-02-14T21:34:51.617Z,100737.86
2019-02-14T21:37:20.012Z,100742.81
2019-02-14T21:39:48.391Z,100735.86
2019-02-14T21:42:20.516Z,100741.56
2019-02-14T21:44:46.885Z,100740.24
2019-02-14T21:47:15.276Z,100747.88
2019-02-14T21:49:43.642Z,100750.07
2019-02-14T21:52:12.038Z,100745.69
2019-02-14T21:54:40.403Z,100748.39
2019-02-14T21:57:08.871Z,100746.17
2019-02-14T21:59:37.334Z,100750.52
2019-02-14T22:02:06.760Z,100751.84
2019-02-14T22:04:35.347Z,100750.14
2019-02-14T22:07:04.202Z,100746.17
2019-02-14T22:09:33.029Z,100746.63
2019-02-14T22:12:01.400Z,100749.27
2019-02-14T22:14:29.831Z,100746.23
2019-02-14T22:16:58.183Z,100755.00
2019-02-14T22:19:26.545Z,100754.20
2019-02-14T22:21:54.981Z,100746.69
2019-02-14T22:24:23.652Z,100747.27
2019-02-14T22:26:52.024Z,100745.50
2019-02-14T22:29:20.415Z,100740.59
2019-02-14T22:31:48.786Z,100744.11
2019-02-14T22:34:17.169Z,100744.17
2019-02-14T22:36:45.541Z,100746.81
2019-02-14T22:39:13.947Z,100744.69
2019-02-14T22:41:43.289Z,100749.52
2019-02-14T22:44:11.731Z,100747.78
2019-02-14T22:46:40.098Z,100749.97
2019-02-14T22:49:08.478Z,100746.88
2019-02-14T22:51:36.917Z,100749.97
2019-02-14T22:54:05.376Z,100748.20
2019-02-14T22:56:33.743Z,100746.46
2019-02-14T22:59:02.715Z,100747.39
2019-02-14T23:01:31.157Z,100750.42
2019-02-14T23:03:59.706Z,100757.03
2019-02-14T23:06:28.913Z,100752.68
2019-02-14T23:08:57.295Z,100760.13
2019-02-14T23:11:25.662Z,100757.09
2019-02-14T23:13:54.045Z,100766.84
2019-02-14T23:16:22.442Z,100769.05
2019-02-14T23:18:50.821Z,100764.66
2019-02-14T23:21:19.193Z,100761.18
2019-02-14T23:23:47.573Z,100754.09
2019-02-14T23:26:15.957Z,100752.84
2019-02-14T23:28:44.337Z,100758.98
2019-02-14T23:31:12.705Z,100760.31
2019-02-14T23:33:41.100Z,100760.77
2019-02-14T23:36:09.471Z,100762.14
2019-02-14T23:38:37.852Z,100764.85
2019-02-14T23:41:06.230Z,100755.16
2019-02-14T23:43:34.620Z,100756.92
2019-02-14T23:46:03.198Z,100756.06
2019-02-14T23:48:31.854Z,100758.25
2019-02-14T23:51:00.284Z,100760.08
2019-02-14T23:53:28.691Z,100765.84
2019-02-14T23:55:57.064Z,100761.95
2019-02-14T23:58:25.444Z,100753.55
